createdAt,value
2022-10-05T00:00:00.239Z,93.9
2022-10-05T00:05:00.331Z,93.6
2022-10-05T00:10:00.239Z,93.6
2022-10-05T00:15:00.219Z,93.9
2022-10-05T00:20:00.229Z,93.9
2022-10-05T00:25:00.214Z,94.3
2022-10-05T00:30:00.231Z,93.9
2022-10-05T00:35:00.235Z,93.9
2022-10-05T00:40:00.251Z,93.9
2022-10-05T00:45:00.249Z,93.9
2022-10-05T00:50:00.284Z,94.2
2022-10-05T00:55:00.250Z,94.6
2022-10-05T01:00:00.255Z,94.5
2022-10-05T01:05:00.262Z,94.2
2022-10-05T01:10:00.270Z,93.9
2022-10-05T01:15:00.311Z,93.9
2022-10-05T01:20:00.287Z,93.9
2022-10-05T01:25:00.295Z,93.9
2022-10-05T01:30:00.291Z,93.9
2022-10-05T01:35:00.298Z,93.9
2022-10-05T01:40:00.309Z,94.2
2022-10-05T01:45:00.305Z,94.2
2022-10-05T01:50:00.325Z,94.2
2022-10-05T01:55:00.358Z,94.5
2022-10-05T02:00:00.318Z,94.2
2022-10-05T02:05:02.610Z,94.2
2022-10-05T02:10:01.177Z,94.2
2022-10-05T02:15:01.174Z,94.2
2022-10-05T02:20:01.158Z,93.8
2022-10-05T02:25:01.172Z,94.2
2022-10-05T02:30:01.166Z,94.1
2022-10-05T02:35:01.180Z,94.5
2022-10-05T02:40:01.241Z,94.1
2022-10-05T02:45:01.194Z,93.8
2022-10-05T02:50:01.194Z,93.8
2022-10-05T02:55:01.317Z,93.8
2022-10-05T03:00:01.203Z,94.1
2022-10-05T03:05:01.233Z,94.5
2022-10-05T03:10:01.537Z,94.5
2022-10-05T03:15:01.299Z,94.5
2022-10-05T03:20:01.330Z,94.8
2022-10-05T03:25:01.349Z,95.2
2022-10-05T03:30:01.356Z,95.2
2022-10-05T03:35:01.325Z,95.2
2022-10-05T03:40:01.249Z,95.5
2022-10-05T03:45:01.242Z,95.5
2022-10-05T03:50:01.293Z,95.5
2022-10-05T03:55:01.265Z,95.5
2022-10-05T04:00:01.261Z,95.2
2022-10-05T04:05:01.276Z,94.6
2022-10-05T04:10:01.300Z,94.6
2022-10-05T04:15:01.283Z,94.6
2022-10-05T04:20:01.285Z,94.5
2022-10-05T04:25:01.335Z,94.5
2022-10-05T04:30:01.350Z,94.5
2022-10-05T04:35:01.300Z,94.2
2022-10-05T04:40:00.164Z,94.5
2022-10-05T04:50:00.205Z,95.7
2022-10-05T04:55:00.223Z,95.8
2022-10-05T05:00:00.225Z,95.8
2022-10-05T05:05:00.222Z,95.8
2022-10-05T05:10:00.222Z,95.5
2022-10-05T05:15:00.231Z,95.2
2022-10-05T05:20:00.225Z,95.5
2022-10-05T05:25:00.195Z,95.8
2022-10-05T05:30:00.260Z,95.9
2022-10-05T05:35:00.242Z,95.9
2022-10-05T05:40:00.257Z,95.9
2022-10-05T05:45:00.226Z,95.9
2022-10-05T05:50:06.381Z,95.6
2022-10-05T05:55:00.249Z,96
2022-10-05T06:00:00.305Z,96
2022-10-05T06:05:00.290Z,96
2022-10-05T06:10:00.292Z,96.1
2022-10-05T06:15:00.300Z,96.7
2022-10-05T06:20:05.019Z,97.1
2022-10-05T06:25:00.296Z,96.8
2022-10-05T06:30:00.299Z,96.8
2022-10-05T06:35:00.311Z,97.5
2022-10-05T06:40:01.414Z,97.5
2022-10-05T06:45:00.310Z,97.6
2022-10-05T06:50:00.308Z,98.3
2022-10-05T06:55:00.334Z,98
2022-10-05T07:00:00.329Z,98
2022-10-05T07:05:00.335Z,97.7
2022-10-05T07:10:00.350Z,97.7
2022-10-05T07:15:00.352Z,97.2
2022-10-05T07:20:00.359Z,97.2
2022-10-05T07:25:00.357Z,96.6
2022-10-05T07:30:00.362Z,96.6
2022-10-05T07:35:00.367Z,96.3
2022-10-05T07:40:01.152Z,95.5
2022-10-05T07:45:00.364Z,95.5
2022-10-05T07:50:00.394Z,94.6
2022-10-05T07:55:00.352Z,94.4
2022-10-05T08:00:00.388Z,93.2
2022-10-05T08:05:01.867Z,91.9
2022-10-05T08:10:00.363Z,92
2022-10-05T08:15:00.405Z,90.4
2022-10-05T08:20:00.374Z,90.8
2022-10-05T08:25:00.405Z,90.1
2022-10-05T08:30:00.415Z,89.8
2022-10-05T08:35:00.418Z,89.5
2022-10-05T08:40:00.432Z,88.9
2022-10-05T08:45:00.432Z,88.3
2022-10-05T08:50:00.437Z,88
2022-10-05T08:55:00.469Z,88.3
2022-10-05T09:00:00.410Z,87.7
2022-10-05T09:05:00.447Z,87.1
2022-10-05T09:10:01.961Z,87.5
2022-10-05T09:15:20.589Z,86.9
2022-10-05T09:20:00.484Z,86.5
2022-10-05T09:25:00.470Z,87.2
2022-10-05T09:30:00.501Z,86.3
2022-10-05T09:35:00.466Z,85.7
2022-10-05T09:40:01.513Z,83.8
2022-10-05T09:45:00.505Z,83.5
2022-10-05T09:50:00.456Z,84.8
2022-10-05T09:55:00.516Z,82.9
2022-10-05T10:00:00.498Z,82.6
2022-10-05T10:05:00.521Z,82.9
2022-10-05T10:10:00.496Z,82.3
2022-10-05T10:15:02.858Z,80.8
2022-10-05T10:20:00.555Z,81.7
2022-10-05T10:25:00.540Z,80.2
2022-10-05T10:30:00.622Z,80.5
2022-10-05T10:35:00.483Z,80.8
2022-10-05T10:40:00.390Z,80.2
2022-10-05T10:45:00.233Z,79.3
2022-10-05T10:50:00.178Z,77.7
2022-10-05T10:55:00.144Z,78.1
2022-10-05T11:00:00.162Z,78.4
2022-10-05T11:05:00.142Z,76.9
2022-10-05T11:10:00.157Z,76.9
2022-10-05T11:15:00.158Z,75.7
2022-10-05T11:20:04.805Z,75.7
2022-10-05T11:25:00.175Z,74.4
2022-10-05T11:30:00.189Z,74.5
2022-10-05T11:35:00.173Z,73.5
2022-10-05T11:40:00.176Z,72.3
2022-10-05T11:45:00.211Z,72
2022-10-05T11:50:00.183Z,73.3
2022-10-05T11:55:11.682Z,72
2022-10-05T12:00:00.234Z,72
2022-10-05T12:05:00.204Z,72.4
2022-10-05T12:10:00.205Z,71.4
2022-10-05T12:15:00.209Z,71.4
2022-10-05T12:20:00.218Z,71.5
2022-10-05T12:25:00.229Z,69.8
2022-10-05T12:30:00.247Z,69.6
2022-10-05T12:35:02.150Z,68.3
2022-10-05T12:40:00.235Z,68.9
2022-10-05T12:45:00.260Z,68.3
2022-10-05T12:50:00.237Z,70.2
2022-10-05T12:55:00.255Z,68.3
2022-10-05T13:00:00.291Z,67.7
2022-10-05T13:05:00.271Z,67.1
2022-10-05T13:10:00.286Z,67.7
2022-10-05T13:15:00.269Z,67.1
2022-10-05T13:20:00.291Z,66.1
2022-10-05T13:25:00.278Z,68.3
2022-10-05T13:30:00.402Z,69
2022-10-05T13:35:00.328Z,67.7
2022-10-05T13:40:00.427Z,67.1
2022-10-05T13:45:00.324Z,67.7
2022-10-05T13:50:00.514Z,68.3
2022-10-05T13:55:00.310Z,69.3
2022-10-05T14:00:00.427Z,69.6
2022-10-05T14:05:00.349Z,69.3
2022-10-05T14:10:00.388Z,69.6
2022-10-05T14:15:00.354Z,69
2022-10-05T14:20:00.355Z,68
2022-10-05T14:25:00.341Z,70.3
2022-10-05T14:30:00.400Z,70.3
2022-10-05T14:35:00.359Z,68.7
2022-10-05T14:40:00.359Z,69.6
2022-10-05T14:45:00.376Z,68.7
2022-10-05T14:50:00.363Z,69
2022-10-05T14:55:00.384Z,70.2
2022-10-05T15:00:00.392Z,69.9
2022-10-05T15:05:00.392Z,69.9
2022-10-05T15:10:00.387Z,70.9
2022-10-05T15:15:00.395Z,70.2
2022-10-05T15:20:00.407Z,70.9
2022-10-05T15:25:00.398Z,70.9
2022-10-05T15:30:00.412Z,71.5
2022-10-05T15:35:00.406Z,71.5
2022-10-05T15:40:00.449Z,72.4
2022-10-05T15:45:00.422Z,73
2022-10-05T15:50:00.429Z,73.3
2022-10-05T15:55:00.432Z,74.6
2022-10-05T16:00:00.447Z,75.2
2022-10-05T16:05:04.594Z,75.8
2022-10-05T16:10:00.464Z,76.4
2022-10-05T16:15:00.456Z,77.1
2022-10-05T16:20:00.467Z,77.6
2022-10-05T16:25:00.495Z,77.9
2022-10-05T16:30:00.482Z,78.2
2022-10-05T16:35:00.471Z,78.8
2022-10-05T16:40:00.289Z,79.4
2022-10-05T16:45:00.201Z,79.4
2022-10-05T16:50:00.115Z,80.3
2022-10-05T16:55:00.133Z,81.2
2022-10-05T17:00:00.166Z,81.1
2022-10-05T17:05:00.148Z,81.7
2022-10-05T17:10:00.174Z,81.4
2022-10-05T17:15:00.144Z,82
2022-10-05T17:20:00.172Z,82.2
2022-10-05T17:25:00.200Z,82.2
2022-10-05T17:30:00.175Z,82.5
2022-10-05T17:35:00.176Z,83.1
2022-10-05T17:40:00.211Z,83.4
2022-10-05T17:45:00.183Z,84
2022-10-05T17:50:00.189Z,84
2022-10-05T17:55:00.192Z,84
2022-10-05T18:00:00.347Z,84.6
2022-10-05T18:05:00.210Z,84.3
2022-10-05T18:10:00.359Z,84.6
2022-10-05T18:15:00.222Z,84.8
2022-10-05T18:20:00.223Z,85.8
2022-10-05T18:25:00.227Z,85.8
2022-10-05T18:30:00.231Z,85.4
2022-10-05T18:35:02.129Z,85.7
2022-10-05T18:40:00.261Z,86.4
2022-10-05T18:45:00.255Z,86.4
2022-10-05T18:50:00.277Z,86.4
2022-10-05T18:55:00.250Z,86.4
2022-10-05T19:00:00.265Z,86.3
2022-10-05T19:05:00.262Z,86.6
2022-10-05T19:10:00.273Z,86.6
2022-10-05T19:15:00.279Z,86.9
2022-10-05T19:20:00.292Z,87.5
2022-10-05T19:25:00.297Z,88.1
2022-10-05T19:30:00.290Z,88.1
2022-10-05T19:35:00.296Z,88.4
2022-10-05T19:40:00.647Z,88.7
2022-10-05T19:45:00.311Z,88.7
2022-10-05T19:50:00.320Z,89.3
2022-10-05T19:55:00.337Z,89.3
2022-10-05T20:00:00.317Z,89.3
2022-10-05T20:05:00.345Z,89.2
2022-10-05T20:10:00.357Z,89.3
2022-10-05T20:15:00.329Z,89.5
2022-10-05T20:20:00.333Z,89.5
2022-10-05T20:25:00.346Z,89.5
2022-10-05T20:30:00.343Z,89.2
2022-10-05T20:35:00.367Z,89.5
2022-10-05T20:40:00.393Z,89.5
2022-10-05T20:45:00.409Z,89.5
2022-10-05T20:50:00.384Z,89.8
2022-10-05T20:55:00.389Z,89.5
2022-10-05T21:00:00.381Z,89.5
2022-10-05T21:05:00.454Z,89.8
2022-10-05T21:10:00.383Z,89.4
2022-10-05T21:15:00.423Z,89.8
2022-10-05T21:20:00.440Z,89.8
2022-10-05T21:25:00.478Z,89.8
2022-10-05T21:30:00.597Z,90.7
2022-10-05T21:35:00.574Z,90.7
2022-10-05T21:40:00.513Z,90.7
2022-10-05T21:45:00.574Z,90.4
2022-10-05T21:50:00.465Z,90.4
2022-10-05T21:55:00.470Z,91.3
2022-10-05T22:00:00.450Z,90.4
2022-10-05T22:05:00.439Z,90.4
2022-10-05T22:10:00.475Z,90.4
2022-10-05T22:15:00.463Z,91
2022-10-05T22:20:00.493Z,90.3
2022-10-05T22:25:00.459Z,90.3
2022-10-05T22:30:00.515Z,90.3
2022-10-05T22:35:00.483Z,90.9
2022-10-05T22:40:00.360Z,90.3
2022-10-05T22:45:00.214Z,90.6
2022-10-05T22:50:00.129Z,90.3
2022-10-05T22:55:00.134Z,90.3
2022-10-05T23:00:00.146Z,90.2
2022-10-05T23:05:00.158Z,90.2
2022-10-05T23:10:00.147Z,90.2
2022-10-05T23:15:00.167Z,90.5
2022-10-05T23:20:00.157Z,90.5
2022-10-05T23:25:00.178Z,90.8
2022-10-05T23:30:00.193Z,90.8
2022-10-05T23:35:00.172Z,90.5
2022-10-05T23:40:00.177Z,90.8
2022-10-05T23:45:00.190Z,90.7
2022-10-05T23:50:00.221Z,91
2022-10-05T23:55:00.196Z,91.4
